Hovedside
METAR-TAF:

METAR-TAF

Lufthavner :

Roskilde lufthavn

Roskilde, Danmark

breddegrad: 55-35N, lengdegrad: 012-08E, høyde over havet: 44 m

Gjeldene værobservasjon

Denne rapporten ble laget for 11 minutter siden, klokken 19:20 UTC
Vind 3 kt fra Øst-sørøst
Temperatur 17°C
Luftfuktighet 88%
Trykk 1017 hPa
Sikt 10 km eller mer

METAR: EKRK 131920Z AUTO 11003KT 9999 NCD 17/15 Q1017

Tid: 21:31 (19:31 UTC)

Varsel

Denne rapporten ble laget for 2 timer og 20 minutter siden, klokken 17:11 UTC
Varsel gyldig fra 13. klokken 18 UTC til 14. klokken 03 UTC
Vind 8 kt fra Sørøst
Sikt 10 km eller mer
ingen skyer under 1500 m og ingen bygeskyer

TAF: EKRK 131711Z 1318/1403 14008KT CAVOK

Værobservasjoner og værvarsel for over 4000 flyplasser (METAR- og TAF-rapporter).

Tilgjengelige stasjoner er representert av de røde og gule prikkene på kartet.

Hold musepekeren over prikken for å se navnet på stasjonen.

Klikk så for å se værobservasjoner og -varsler.

For å forandre kartet kan du klikke på den grønne knappen med svart kryss for å zoome inn, på den grønne knappen med strek for å zoome ut, eller på de grønne pilene for å se tilstøtende kart.


METAR-TAF: